Time;durP1;ratioP1;P1;durP2;ratioP2;P2;SDS_P1;SDS_P2;PMS_P1;PMS_P2;Temp;Humidity;BMP_temperature;BMP_pressure;BME280_temperature;BME280_humidity;BME280_pressure;Samples;Min_cycle;Max_cycle;Signal;HPM_P1;HPM_P2
2023/03/02 04:01:17;;;;;;;34.57;24.97;;;-1.80;99.90;;;;;;5597456;23;20218;-84
2023/03/02 04:03:42;;;;;;;33.10;24.07;;;-1.80;99.90;;;;;;4956534;28;20193;-82
2023/03/02 04:06:17;;;;;;;38.10;23.30;;;-1.80;99.90;;;;;;4951217;28;20182;-83
2023/03/02 04:08:43;;;;;;;35.10;25.40;;;-1.80;99.90;;;;;;4946911;29;20253;-82
2023/03/02 04:11:09;;;;;;;36.80;23.87;;;-1.80;99.90;;;;;;4945580;29;20218;-82
2023/03/02 04:13:35;;;;;;;32.07;20.73;;;-1.80;99.90;;;;;;4936536;29;20218;-82
2023/03/02 04:16:00;;;;;;;41.27;23.07;;;-1.80;99.90;;;;;;4927408;29;20266;-81
2023/03/02 04:18:26;;;;;;;39.33;24.77;;;-1.80;99.90;;;;;;4926638;29;20194;-82
2023/03/02 04:20:52;;;;;;;37.77;23.07;;;-1.80;99.90;;;;;;4932559;28;20218;-82
2023/03/02 04:23:18;;;;;;;34.80;24.17;;;-1.90;99.90;;;;;;4931219;29;20238;-82
2023/03/02 04:25:43;;;;;;;42.07;23.97;;;-1.90;99.90;;;;;;4929093;29;20614;-82
2023/03/02 04:28:09;;;;;;;34.50;24.03;;;-1.90;99.90;;;;;;4927211;29;20199;-82
2023/03/02 04:30:35;;;;;;;38.33;25.07;;;-1.90;99.90;;;;;;4927436;29;20246;-81
2023/03/02 04:33:02;;;;;;;35.33;24.53;;;-2.00;99.90;;;;;;4925280;29;20234;-81
2023/03/02 04:35:29;;;;;;;36.77;23.43;;;-1.90;99.90;;;;;;4926129;29;20179;-82
2023/03/02 04:37:56;;;;;;;37.17;27.07;;;-2.00;99.90;;;;;;4924784;29;20175;-82
2023/03/02 04:40:22;;;;;;;37.23;26.87;;;-2.10;99.90;;;;;;4925190;29;20179;-82
2023/03/02 04:42:48;;;;;;;41.43;24.93;;;-2.00;99.90;;;;;;4923033;29;20258;-82
2023/03/02 04:45:13;;;;;;;40.27;29.70;;;-2.00;99.90;;;;;;4924335;29;20187;-81
2023/03/02 04:47:40;;;;;;;35.13;24.53;;;-2.00;99.90;;;;;;4932259;29;20187;-82
2023/03/02 04:50:07;;;;;;;37.30;24.60;;;-2.10;99.90;;;;;;4939635;29;20184;-82
2023/03/02 04:52:33;;;;;;;38.00;24.37;;;-2.10;99.90;;;;;;4932943;29;20858;-82
2023/03/02 04:54:58;;;;;;;38.00;23.87;;;-2.10;99.90;;;;;;4928897;29;20246;-82
2023/03/02 04:57:24;;;;;;;38.97;25.87;;;-2.10;99.90;;;;;;4930048;29;20243;-82
2023/03/02 04:59:50;;;;;;;37.03;26.77;;;-2.20;99.90;;;;;;4930547;29;20543;-82
2023/03/02 05:02:16;;;;;;;42.13;23.97;;;-2.20;99.90;;;;;;4931307;29;20294;-82
2023/03/02 05:04:42;;;;;;;36.23;23.20;;;-2.20;99.90;;;;;;4930233;29;20187;-83
2023/03/02 05:07:07;;;;;;;37.77;23.13;;;-2.20;99.90;;;;;;4934102;29;20195;-82
2023/03/02 05:09:33;;;;;;;34.43;22.13;;;-2.20;99.90;;;;;;4932866;29;20192;-82
2023/03/02 05:12:02;;;;;;;36.07;24.10;;;-2.20;99.90;;;;;;4931326;29;20215;-82
2023/03/02 05:14:28;;;;;;;32.23;21.30;;;-2.30;99.90;;;;;;4929995;29;20271;-82
2023/03/02 05:16:54;;;;;;;39.37;22.07;;;-2.20;99.90;;;;;;4929697;29;20195;-82
2023/03/02 05:19:20;;;;;;;30.77;20.47;;;-2.20;99.90;;;;;;4926952;29;20183;-82
2023/03/02 05:21:46;;;;;;;34.70;22.90;;;-2.30;99.90;;;;;;4925671;29;20238;-80
2023/03/02 05:24:12;;;;;;;33.73;21.30;;;-2.30;99.90;;;;;;4921865;29;20581;-82
2023/03/02 05:26:38;;;;;;;37.60;21.70;;;-2.30;99.90;;;;;;4913299;29;20195;-82
2023/03/02 05:29:04;;;;;;;39.27;24.30;;;-2.40;99.90;;;;;;4905978;29;20711;-81
2023/03/02 05:31:36;;;;;;;34.27;21.07;;;-2.40;99.90;;;;;;4916117;29;20219;-82
2023/03/02 05:34:04;;;;;;;33.40;22.13;;;-2.40;99.90;;;;;;4916018;29;20235;-81
2023/03/02 05:36:30;;;;;;;32.73;21.63;;;-2.40;99.90;;;;;;4917453;29;20194;-82
2023/03/02 05:38:56;;;;;;;37.70;21.70;;;-2.40;99.90;;;;;;4903340;29;20196;-82
2023/03/02 05:41:22;;;;;;;33.57;21.00;;;-2.40;99.90;;;;;;4909587;29;20220;-81
2023/03/02 05:43:48;;;;;;;38.93;23.60;;;-2.50;99.90;;;;;;4941852;29;20190;-82
2023/03/02 05:46:15;;;;;;;38.77;21.90;;;-2.50;99.90;;;;;;4948874;28;20174;-80
2023/03/02 05:48:41;;;;;;;36.90;22.47;;;-2.40;99.90;;;;;;4959186;28;20174;-77
2023/03/02 05:51:07;;;;;;;37.90;23.10;;;-2.50;99.90;;;;;;4937665;29;20663;-75
2023/03/02 05:53:32;;;;;;;35.40;22.53;;;-2.50;99.90;;;;;;4934768;29;20226;-73
2023/03/02 05:55:58;;;;;;;34.13;23.10;;;-2.50;99.90;;;;;;4902483;29;20199;-71
2023/03/02 05:58:24;;;;;;;34.27;22.50;;;-2.60;99.90;;;;;;4915043;29;20282;-71
2023/03/02 06:00:51;;;;;;;38.20;23.50;;;-2.60;99.90;;;;;;4914543;29;20214;-71
2023/03/02 06:03:17;;;;;;;37.50;22.37;;;-2.60;99.90;;;;;;4916721;29;20195;-71
2023/03/02 06:05:42;;;;;;;39.13;25.47;;;-2.50;99.90;;;;;;4917173;29;20190;-72
2023/03/02 06:08:09;;;;;;;36.30;25.50;;;-2.50;99.90;;;;;;4914865;29;20706;-71
2023/03/02 06:10:35;;;;;;;35.00;22.40;;;-2.50;99.90;;;;;;4915745;29;20214;-71
2023/03/02 06:13:01;;;;;;;42.93;23.30;;;-2.50;99.90;;;;;;4916270;29;20698;-73
2023/03/02 06:15:29;;;;;;;36.23;23.90;;;-2.50;99.90;;;;;;4915267;29;20196;-71
2023/03/02 06:17:58;;;;;;;40.80;24.63;;;-2.50;99.90;;;;;;4915722;29;20217;-71
2023/03/02 06:20:23;;;;;;;36.07;22.17;;;-2.40;99.90;;;;;;4914260;29;20179;-70
2023/03/02 06:22:49;;;;;;;40.67;21.97;;;-2.40;99.90;;;;;;4915714;29;20282;-70
2023/03/02 06:25:23;;;;;;;36.80;21.93;;;-2.30;99.90;;;;;;4914988;29;20183;-71
2023/03/02 06:27:52;;;;;;;38.17;23.80;;;-2.30;99.90;;;;;;4915731;29;20285;-71
2023/03/02 06:30:21;;;;;;;38.53;24.93;;;-2.30;99.90;;;;;;4915500;29;20191;-71
2023/03/02 06:32:47;;;;;;;39.17;21.23;;;-2.20;99.90;;;;;;4914017;29;20207;-71
2023/03/02 06:35:13;;;;;;;40.00;24.03;;;-2.20;99.90;;;;;;4913983;29;20190;-70
2023/03/02 06:37:39;;;;;;;32.53;20.80;;;-2.10;99.90;;;;;;4914579;29;20179;-71
2023/03/02 06:40:09;;;;;;;38.17;22.00;;;-1.90;99.90;;;;;;4914102;29;20179;-71
2023/03/02 06:42:36;;;;;;;35.53;21.07;;;-1.80;99.90;;;;;;4915650;29;20207;-71
2023/03/02 06:45:01;;;;;;;32.00;21.73;;;-1.70;99.90;;;;;;4915036;29;20183;-72
2023/03/02 06:47:27;;;;;;;43.03;31.80;;;-1.60;99.90;;;;;;4915046;29;20205;-71
2023/03/02 06:49:53;;;;;;;35.83;23.17;;;-1.50;99.90;;;;;;4913868;29;20194;-72
2023/03/02 06:52:19;;;;;;;41.57;24.13;;;-1.40;99.90;;;;;;4915174;29;20597;-72
2023/03/02 06:54:45;;;;;;;36.40;24.30;;;-1.40;99.90;;;;;;4913326;29;20183;-71
2023/03/02 06:57:11;;;;;;;38.03;25.67;;;-1.10;99.90;;;;;;4915293;29;20215;-72
2023/03/02 06:59:36;;;;;;;36.50;23.33;;;-1.00;99.90;;;;;;4915174;29;20553;-72
2023/03/02 07:02:02;;;;;;;40.27;23.67;;;-0.80;99.90;;;;;;4914669;29;20679;-72
2023/03/02 07:04:28;;;;;;;40.07;24.13;;;-0.70;99.90;;;;;;4913642;29;20222;-71
2023/03/02 07:06:54;;;;;;;34.57;22.00;;;-0.60;99.90;;;;;;4916549;29;20187;-71
2023/03/02 07:09:21;;;;;;;36.00;22.10;;;-0.40;99.90;;;;;;4914462;29;20646;-71
2023/03/02 07:11:46;;;;;;;35.97;22.33;;;-0.20;99.90;;;;;;4915496;29;20237;-71
2023/03/02 07:14:12;;;;;;;36.33;24.53;;;0.00;99.90;;;;;;4914659;29;20211;-71
2023/03/02 07:16:38;;;;;;;38.67;23.03;;;0.20;99.90;;;;;;4914906;29;20183;-71
2023/03/02 07:19:04;;;;;;;43.03;26.27;;;0.50;99.90;;;;;;4915228;29;20179;-71
2023/03/02 07:21:29;;;;;;;38.63;24.77;;;0.80;99.90;;;;;;4913823;29;20361;-71
2023/03/02 07:23:55;;;;;;;39.03;23.87;;;1.30;99.90;;;;;;4914900;29;20304;-71
2023/03/02 07:26:21;;;;;;;42.03;25.90;;;1.70;99.90;;;;;;4914622;29;20210;-71
2023/03/02 07:28:47;;;;;;;40.07;23.80;;;2.20;99.90;;;;;;4914946;29;20205;-71
2023/03/02 07:31:13;;;;;;;30.70;22.27;;;2.70;99.90;;;;;;4914368;29;20207;-71
2023/03/02 07:33:39;;;;;;;34.43;23.40;;;3.00;99.90;;;;;;4914990;29;20213;-71
2023/03/02 07:36:07;;;;;;;36.67;22.13;;;3.30;99.90;;;;;;4914463;29;20187;-71
2023/03/02 07:38:33;;;;;;;32.60;21.73;;;3.70;99.90;;;;;;4914674;29;20187;-71
2023/03/02 07:41:00;;;;;;;32.60;21.93;;;4.00;99.90;;;;;;4914669;29;20285;-72
2023/03/02 07:43:27;;;;;;;32.80;21.87;;;4.00;99.90;;;;;;4913597;29;20647;-72
2023/03/02 07:45:53;;;;;;;35.20;22.90;;;4.00;99.90;;;;;;4913970;29;20560;-71
2023/03/02 07:48:21;;;;;;;32.77;22.83;;;4.40;99.90;;;;;;4914821;29;20183;-71
2023/03/02 07:50:47;;;;;;;39.13;25.00;;;4.60;99.90;;;;;;4895674;29;20291;-73
2023/03/02 07:53:13;;;;;;;34.73;24.67;;;4.80;99.90;;;;;;4896763;29;20660;-73
2023/03/02 07:55:40;;;;;;;31.00;25.50;;;5.00;99.90;;;;;;4898957;29;20243;-72
2023/03/02 07:58:06;;;;;;;36.53;28.17;;;5.10;99.90;;;;;;4897833;29;20179;-72
2023/03/02 08:00:32;;;;;;;36.90;26.53;;;5.20;99.90;;;;;;4898636;29;20247;-72
2023/03/02 08:02:58;;;;;;;33.13;24.23;;;5.30;99.90;;;;;;4897960;29;20555;-72
2023/03/02 08:05:23;;;;;;;33.17;22.37;;;5.60;99.90;;;;;;4896450;29;20192;-68
2023/03/02 08:07:49;;;;;;;32.23;21.20;;;5.90;99.90;;;;;;4895184;29;20188;-67
2023/03/02 08:10:15;;;;;;;34.20;21.37;;;6.10;99.90;;;;;;4896308;29;20187;-68
2023/03/02 08:12:41;;;;;;;30.93;20.77;;;6.40;99.90;;;;;;4898877;29;20215;-67
2023/03/02 08:15:08;;;;;;;33.00;22.60;;;6.60;99.90;;;;;;4922736;29;20285;-66
2023/03/02 08:17:34;;;;;;;34.17;21.77;;;6.80;99.90;;;;;;4935624;29;20178;-67
2023/03/02 08:20:00;;;;;;;37.47;21.87;;;6.90;99.90;;;;;;4923500;29;20190;-67
2023/03/02 08:22:25;;;;;;;28.77;20.93;;;6.90;99.90;;;;;;4902260;29;20222;-67
2023/03/02 08:24:51;;;;;;;34.33;23.97;;;7.10;99.90;;;;;;4898523;29;20188;-67
2023/03/02 08:27:17;;;;;;;33.27;23.17;;;7.10;99.90;;;;;;4912560;29;20282;-67
2023/03/02 08:29:43;;;;;;;34.57;23.53;;;7.10;99.90;;;;;;4917577;29;20273;-67
2023/03/02 08:32:08;;;;;;;33.13;23.77;;;7.30;99.90;;;;;;4916362;29;20585;-67
2023/03/02 08:34:34;;;;;;;34.83;23.30;;;7.50;99.90;;;;;;4916971;29;20194;-66
2023/03/02 08:37:00;;;;;;;38.60;23.30;;;7.70;99.90;;;;;;4914852;29;20663;-72
2023/03/02 08:39:29;;;;;;;39.17;24.23;;;7.60;99.90;;;;;;4915979;29;20222;-72
2023/03/02 08:41:55;;;;;;;32.97;25.80;;;7.70;99.90;;;;;;4917107;29;20207;-71
2023/03/02 08:44:21;;;;;;;31.60;22.87;;;7.70;99.90;;;;;;4914668;29;20218;-72
2023/03/02 08:46:50;;;;;;;32.00;23.20;;;7.80;99.90;;;;;;4916709;29;20246;-72
2023/03/02 08:49:17;;;;;;;34.90;21.97;;;7.80;99.90;;;;;;4916342;29;20195;-72
2023/03/02 08:51:44;;;;;;;27.33;21.63;;;7.90;99.90;;;;;;4916451;29;20207;-72
2023/03/02 08:54:11;;;;;;;31.87;22.67;;;8.00;99.90;;;;;;4917049;29;20245;-72
2023/03/02 08:56:38;;;;;;;28.17;22.10;;;8.00;99.90;;;;;;4916349;29;20279;-72
2023/03/02 08:59:09;;;;;;;29.13;21.80;;;8.10;99.90;;;;;;4917278;29;20187;-72
2023/03/02 09:01:36;;;;;;;27.47;21.20;;;8.50;99.90;;;;;;4917232;29;20230;-72
2023/03/02 09:04:03;;;;;;;26.67;20.37;;;8.70;99.90;;;;;;4917443;29;20239;-72
2023/03/02 09:06:32;;;;;;;27.63;20.50;;;8.60;99.90;;;;;;4914036;29;20190;-72
2023/03/02 09:09:01;;;;;;;32.57;20.70;;;8.90;99.90;;;;;;4911494;29;20282;-73
2023/03/02 09:11:27;;;;;;;29.77;20.47;;;9.20;99.90;;;;;;4916833;29;20245;-72
2023/03/02 09:13:53;;;;;;;26.47;19.73;;;9.60;99.90;;;;;;4903038;29;20243;-72
2023/03/02 09:16:19;;;;;;;30.67;19.33;;;9.50;99.90;;;;;;4897707;29;20188;-73
2023/03/02 09:18:46;;;;;;;29.27;21.50;;;9.50;99.90;;;;;;4897136;29;20671;-75
2023/03/02 09:21:13;;;;;;;24.23;18.37;;;9.70;99.90;;;;;;4897711;29;20721;-74
2023/03/02 09:23:39;;;;;;;26.30;17.93;;;10.10;99.90;;;;;;4897477;29;20179;-72
2023/03/02 09:26:05;;;;;;;26.47;17.27;;;10.50;99.90;;;;;;4910145;29;20227;-73
2023/03/02 09:28:31;;;;;;;25.03;17.83;;;10.50;99.90;;;;;;4916363;29;20183;-73
2023/03/02 09:30:59;;;;;;;27.03;18.77;;;11.00;99.90;;;;;;4916765;29;20214;-73
2023/03/02 09:33:26;;;;;;;23.83;18.10;;;11.10;99.90;;;;;;4915494;29;20214;-74
2023/03/02 09:35:52;;;;;;;24.80;17.67;;;11.40;99.90;;;;;;4916417;29;20565;-73
2023/03/02 09:38:18;;;;;;;24.17;18.33;;;11.80;99.90;;;;;;4916954;29;20178;-72
2023/03/02 09:40:48;;;;;;;24.10;17.03;;;11.60;99.90;;;;;;4916534;29;20288;-72
2023/03/02 09:43:38;;;;;;;27.10;18.70;;;11.90;99.90;;;;;;4916193;29;20183;-72
2023/03/02 09:46:22;;;;;;;24.00;18.20;;;11.90;99.80;;;;;;4896660;29;20605;-73
2023/03/02 09:49:07;;;;;;;20.70;16.40;;;12.10;99.90;;;;;;4897780;29;20259;-72
2023/03/02 09:51:53;;;;;;;28.17;16.17;;;12.60;97.70;;;;;;4899327;29;20377;-72
2023/03/02 09:54:25;;;;;;;24.93;16.77;;;12.50;97.80;;;;;;4898701;29;20714;-71
2023/03/02 09:56:56;;;;;;;22.40;16.47;;;12.80;97.50;;;;;;4898241;29;20275;-72
2023/03/02 09:59:35;;;;;;;22.07;17.77;;;13.10;96.60;;;;;;4897535;29;20674;-68
2023/03/02 10:02:20;;;;;;;23.47;18.07;;;12.80;96.20;;;;;;4896179;29;20228;-72
2023/03/02 10:04:53;;;;;;;21.17;17.03;;;13.30;95.80;;;;;;4896000;29;20342;-71
2023/03/02 10:07:34;;;;;;;26.40;18.77;;;13.90;94.30;;;;;;4896322;29;20192;-71
2023/03/02 10:10:36;;;;;;;22.10;18.33;;;14.00;93.50;;;;;;4897218;29;20184;-70
2023/03/02 10:13:08;;;;;;;20.67;15.10;;;14.20;92.40;;;;;;4901621;29;20270;-72
2023/03/02 10:16:12;;;;;;;22.53;17.13;;;14.30;91.90;;;;;;4924143;23;20187;-75
2023/03/02 10:18:59;;;;;;;23.37;17.33;;;14.00;92.60;;;;;;4902067;29;20195;-72
2023/03/02 10:21:40;;;;;;;21.93;15.77;;;14.00;92.20;;;;;;4895940;29;20712;-72
2023/03/02 10:24:28;;;;;;;21.93;16.57;;;14.60;91.60;;;;;;4931519;29;20186;-72
2023/03/02 10:26:58;;;;;;;21.67;17.57;;;14.80;90.70;;;;;;4921956;29;20230;-74
2023/03/02 10:29:35;;;;;;;20.67;18.10;;;14.70;90.10;;;;;;4915669;29;20537;-74
2023/03/02 10:32:13;;;;;;;20.97;16.20;;;14.50;90.60;;;;;;4913223;29;20195;-73
2023/03/02 10:34:39;;;;;;;25.97;18.90;;;14.80;90.30;;;;;;4909947;29;20247;-73
2023/03/02 10:37:21;;;;;;;21.50;18.20;;;14.80;90.30;;;;;;4895373;29;20207;-73
2023/03/02 10:39:48;;;;;;;22.27;17.50;;;14.30;90.50;;;;;;4894946;29;20186;-73
2023/03/02 10:42:35;;;;;;;22.77;17.60;;;13.80;91.50;;;;;;4896274;29;20620;-73
2023/03/02 10:45:26;;;;;;;23.83;17.33;;;14.00;91.40;;;;;;4895573;29;20207;-73
2023/03/02 10:48:08;;;;;;;22.20;17.37;;;14.50;90.90;;;;;;4895297;29;20194;-73
2023/03/02 10:50:34;;;;;;;20.07;18.00;;;15.70;88.30;;;;;;4896960;29;20243;-73
2023/03/02 10:53:00;;;;;;;21.90;17.90;;;16.00;85.40;;;;;;4911591;29;20212;-72
2023/03/02 10:55:26;;;;;;;18.13;14.47;;;16.10;84.70;;;;;;4902889;29;20639;-72
2023/03/02 10:57:59;;;;;;;19.47;17.30;;;16.20;82.20;;;;;;4896283;29;20188;-73
2023/03/02 11:00:27;;;;;;;21.97;19.67;;;15.50;83.50;;;;;;4896038;29;20612;-73
2023/03/02 11:02:56;;;;;;;22.07;19.60;;;15.20;85.10;;;;;;4896276;29;20191;-74
2023/03/02 11:05:34;;;;;;;27.23;19.73;;;15.20;87.00;;;;;;4889913;29;20572;-74
2023/03/02 11:08:07;;;;;;;22.67;20.07;;;15.90;86.20;;;;;;4887794;29;20195;-74
2023/03/02 11:10:57;;;;;;;22.30;18.60;;;15.70;84.80;;;;;;4895988;29;20270;-74
2023/03/02 11:13:35;;;;;;;22.53;20.30;;;15.10;84.90;;;;;;4914512;29;20214;-75
2023/03/02 11:16:16;;;;;;;25.43;19.20;;;14.80;87.60;;;;;;4913900;29;20222;-74
2023/03/02 11:18:56;;;;;;;21.97;19.43;;;15.10;87.20;;;;;;4914847;29;20687;-75
2023/03/02 11:21:24;;;;;;;20.37;16.07;;;16.10;84.80;;;;;;4915236;29;20719;-74
2023/03/02 11:23:56;;;;;;;20.33;15.83;;;16.60;83.00;;;;;;4915001;29;20611;-74
2023/03/02 11:26:33;;;;;;;22.20;15.13;;;17.40;79.20;;;;;;4914825;29;20582;-75
2023/03/02 11:29:12;;;;;;;15.83;13.93;;;17.50;77.00;;;;;;4913694;29;20190;-74
2023/03/02 11:31:41;;;;;;;17.37;13.60;;;17.20;75.50;;;;;;4914756;29;20195;-74
2023/03/02 11:34:19;;;;;;;18.97;14.00;;;18.00;74.60;;;;;;4914460;29;20600;-75
2023/03/02 11:36:59;;;;;;;17.57;13.50;;;17.70;75.30;;;;;;4914438;29;20209;-75
2023/03/02 11:39:34;;;;;;;19.33;14.17;;;17.40;76.60;;;;;;4914496;29;20217;-74
2023/03/02 11:42:00;;;;;;;17.17;14.47;;;17.50;76.20;;;;;;4914873;29;20628;-74
2023/03/02 11:44:27;;;;;;;18.00;13.93;;;16.70;79.00;;;;;;4914516;29;20274;-74
2023/03/02 11:47:00;;;;;;;20.10;15.63;;;16.20;78.40;;;;;;4918045;29;20238;-74
2023/03/02 11:49:36;;;;;;;18.97;13.47;;;15.50;81.90;;;;;;4918603;29;20212;-74
2023/03/02 11:52:01;;;;;;;17.83;13.63;;;16.40;80.60;;;;;;4918398;29;20198;-74
2023/03/02 11:54:35;;;;;;;19.43;14.37;;;17.30;77.50;;;;;;4917911;29;20206;-75
2023/03/02 11:57:02;;;;;;;15.70;13.47;;;16.80;77.40;;;;;;4917429;29;20215;-74
2023/03/02 11:59:30;;;;;;;18.47;13.87;;;17.30;77.30;;;;;;4917912;29;20190;-75
2023/03/02 12:01:59;;;;;;;19.23;13.97;;;18.10;75.70;;;;;;4916982;29;20206;-75
2023/03/02 12:04:36;;;;;;;16.43;14.03;;;17.00;77.10;;;;;;4918209;29;20611;-75
2023/03/02 12:07:18;;;;;;;23.60;14.50;;;17.80;77.50;;;;;;4917925;29;20593;-75
2023/03/02 12:09:54;;;;;;;19.97;14.57;;;18.70;73.60;;;;;;4917991;29;20190;-75
2023/03/02 12:12:42;;;;;;;16.60;13.80;;;18.00;73.60;;;;;;4904037;29;20195;-75
2023/03/02 12:15:35;;;;;;;16.87;13.67;;;17.70;74.80;;;;;;4898830;29;20191;-75
2023/03/02 12:18:01;;;;;;;18.97;14.87;;;18.50;73.40;;;;;;4899126;29;20192;-76
2023/03/02 12:20:28;;;;;;;17.80;14.60;;;19.20;71.30;;;;;;4899072;29;20227;-76
2023/03/02 12:23:06;;;;;;;15.33;13.73;;;19.30;69.50;;;;;;4898548;29;20579;-76
2023/03/02 12:25:38;;;;;;;15.53;13.17;;;19.60;67.80;;;;;;4898694;29;20192;-76
2023/03/02 12:28:04;;;;;;;16.97;13.03;;;19.70;68.60;;;;;;4899350;29;20187;-76
2023/03/02 12:30:30;;;;;;;16.73;14.03;;;19.00;68.50;;;;;;4903863;29;20171;-75
2023/03/02 12:33:01;;;;;;;15.57;13.63;;;18.10;71.90;;;;;;4905660;29;20223;-75
2023/03/02 12:35:31;;;;;;;15.87;13.70;;;18.40;71.50;;;;;;4877910;29;20199;-75
2023/03/02 12:38:16;;;;;;;18.17;14.57;;;19.70;69.30;;;;;;4879309;29;20185;-76
2023/03/02 12:41:05;;;;;;;18.60;12.97;;;20.00;65.80;;;;;;4879368;29;20199;-76
2023/03/02 12:43:32;;;;;;;17.47;15.70;;;20.40;65.90;;;;;;4879270;29;20224;-75
2023/03/02 12:46:19;;;;;;;18.43;15.67;;;20.10;62.20;;;;;;4878965;29;20232;-74
2023/03/02 12:49:06;;;;;;;18.03;15.33;;;20.00;63.40;;;;;;4879918;29;20185;-74
2023/03/02 12:51:52;;;;;;;25.70;23.07;;;20.90;60.90;;;;;;4875983;29;20192;-74
2023/03/02 12:54:21;;;;;;;27.60;25.20;;;21.50;58.90;;;;;;4879766;29;20188;-73
2023/03/02 12:56:48;;;;;;;27.03;24.80;;;21.60;57.70;;;;;;4878517;29;20704;-74
2023/03/02 12:59:32;;;;;;;30.97;28.60;;;21.50;58.20;;;;;;4879850;29;20199;-74
2023/03/02 13:02:17;;;;;;;30.43;28.13;;;21.80;57.30;;;;;;4879853;29;20196;-74
2023/03/02 13:04:43;;;;;;;28.80;26.33;;;21.90;56.70;;;;;;4879605;29;20603;-74
2023/03/02 13:07:18;;;;;;;27.73;25.30;;;21.90;56.30;;;;;;4879456;29;20240;-74
2023/03/02 13:09:53;;;;;;;34.03;30.70;;;22.30;55.90;;;;;;4879491;29;20184;-66
2023/03/02 13:12:19;;;;;;;31.85;29.05;;;21.70;58.20;;;;;;4881049;29;20187;-66
2023/03/02 13:14:53;;;;;;;18.00;16.30;;;20.80;56.70;;;;;;4880326;29;20618;-69
2023/03/02 13:17:23;;;;;;;24.37;22.27;;;22.30;55.10;;;;;;4893898;29;20219;-67
2023/03/02 13:19:49;;;;;;;32.23;29.40;;;21.30;57.00;;;;;;4915353;29;20202;-67
2023/03/02 13:22:15;;;;;;;28.70;26.20;;;20.00;59.50;;;;;;4916741;29;20183;-67
2023/03/02 13:24:54;;;;;;;20.37;18.57;;;19.30;61.20;;;;;;4916564;29;20263;-67
2023/03/02 13:27:24;;;;;;;19.63;15.60;;;19.20;62.90;;;;;;4915895;29;20222;-68
2023/03/02 13:29:51;;;;;;;16.00;14.20;;;19.30;62.70;;;;;;4905388;29;20198;-67
2023/03/02 13:32:24;;;;;;;18.07;15.93;;;18.40;64.50;;;;;;4897726;29;20184;-67
2023/03/02 13:35:01;;;;;;;21.20;17.37;;;19.30;63.70;;;;;;4897203;29;20188;-67
2023/03/02 13:37:39;;;;;;;23.77;21.37;;;20.30;61.20;;;;;;4897305;29;20284;-67
2023/03/02 13:40:29;;;;;;;25.43;22.77;;;20.70;60.00;;;;;;4879672;29;20180;-67
2023/03/02 13:42:55;;;;;;;25.37;23.07;;;21.00;58.90;;;;;;4872621;29;20587;-67
2023/03/02 13:45:21;;;;;;;27.37;24.97;;;20.40;59.50;;;;;;4878211;29;20228;-66
2023/03/02 13:47:47;;;;;;;27.83;25.23;;;19.90;59.50;;;;;;4877556;29;20667;-66
2023/03/02 13:50:25;;;;;;;26.90;24.17;;;20.50;59.70;;;;;;4878302;29;20604;-68
2023/03/02 13:52:54;;;;;;;26.93;24.30;;;20.60;59.30;;;;;;4878543;29;20196;-69
2023/03/02 13:55:21;;;;;;;29.30;26.70;;;20.60;59.40;;;;;;4877872;29;20223;-68
2023/03/02 13:57:48;;;;;;;28.37;25.83;;;20.90;58.80;;;;;;4878413;29;20196;-68
2023/03/02 14:00:34;;;;;;;28.80;26.37;;;20.60;59.20;;;;;;4878353;29;20188;-69
2023/03/02 14:03:01;;;;;;;29.63;26.50;;;20.40;59.60;;;;;;4878246;29;20216;-68
2023/03/02 14:05:32;;;;;;;19.83;17.80;;;19.40;61.10;;;;;;4877918;29;20621;-68
2023/03/02 14:08:06;;;;;;;17.63;15.20;;;18.70;64.40;;;;;;4877883;29;20580;-68
2023/03/02 14:10:31;;;;;;;17.30;13.13;;;17.90;65.80;;;;;;4883347;29;20172;-69
2023/03/02 14:13:04;;;;;;;17.57;14.50;;;16.80;68.70;;;;;;4893936;29;20276;-68
2023/03/02 14:15:30;;;;;;;19.20;15.80;;;16.30;70.60;;;;;;4878121;29;20658;-68
2023/03/02 14:17:56;;;;;;;19.87;14.20;;;16.60;70.10;;;;;;4878147;29;20255;-68
2023/03/02 14:20:22;;;;;;;19.37;14.57;;;16.80;70.30;;;;;;4878010;29;20275;-68
2023/03/02 14:22:49;;;;;;;21.43;15.07;;;16.70;70.30;;;;;;4878159;29;20215;-68
2023/03/02 14:25:15;;;;;;;17.83;13.50;;;15.80;71.80;;;;;;4877650;29;20247;-68
2023/03/02 14:27:41;;;;;;;18.93;14.00;;;15.70;74.60;;;;;;4878031;29;20696;-68
2023/03/02 14:30:15;;;;;;;21.17;15.20;;;15.90;72.80;;;;;;4877802;29;20663;-68
2023/03/02 14:32:41;;;;;;;17.07;14.57;;;16.10;72.70;;;;;;4877916;29;20189;-76
2023/03/02 14:35:10;;;;;;;25.07;15.40;;;15.90;72.80;;;;;;4877089;29;20675;-75
2023/03/02 14:37:48;;;;;;;17.40;14.37;;;15.80;73.20;;;;;;4889564;29;20302;-75
2023/03/02 14:40:17;;;;;;;18.53;14.33;;;15.60;74.60;;;;;;4877927;29;20196;-75
2023/03/02 14:42:43;;;;;;;18.80;14.10;;;15.20;75.20;;;;;;4905388;29;20207;-74
2023/03/02 14:45:10;;;;;;;16.77;13.17;;;14.90;76.70;;;;;;4909038;29;20572;-74
2023/03/02 14:47:35;;;;;;;19.20;13.67;;;14.80;77.20;;;;;;4890988;29;20282;-75
2023/03/02 14:50:03;;;;;;;16.80;14.07;;;15.00;77.80;;;;;;4886255;29;20318;-74
2023/03/02 14:52:40;;;;;;;22.63;14.67;;;15.40;76.20;;;;;;4896368;29;20736;-74
2023/03/02 14:55:12;;;;;;;20.27;15.00;;;15.70;76.00;;;;;;4895793;29;20661;-74
2023/03/02 14:57:39;;;;;;;18.00;13.67;;;15.30;74.90;;;;;;4895552;29;20571;-75
2023/03/02 15:00:06;;;;;;;18.87;13.53;;;15.00;78.20;;;;;;4896569;29;20618;-75
2023/03/02 15:02:32;;;;;;;22.37;14.33;;;14.60;78.30;;;;;;4896518;29;20187;-74
2023/03/02 15:04:58;;;;;;;19.70;15.47;;;14.20;80.30;;;;;;4896118;29;20184;-74
2023/03/02 15:07:27;;;;;;;21.77;18.83;;;13.80;81.60;;;;;;4896723;29;20203;-75
2023/03/02 15:09:57;;;;;;;22.30;19.87;;;13.50;83.10;;;;;;4896644;29;20570;-75
2023/03/02 15:12:24;;;;;;;21.83;19.53;;;13.50;83.70;;;;;;4895115;29;20180;-75
2023/03/02 15:14:50;;;;;;;22.57;18.30;;;13.30;84.20;;;;;;4896058;29;20591;-75
2023/03/02 15:17:15;;;;;;;27.57;17.57;;;13.20;84.80;;;;;;4896214;29;20223;-75
2023/03/02 15:19:41;;;;;;;24.83;16.60;;;13.10;85.50;;;;;;4895296;29;20188;-75
2023/03/02 15:22:07;;;;;;;19.30;14.23;;;13.00;85.70;;;;;;4896273;29;20188;-75
2023/03/02 15:24:33;;;;;;;18.53;15.17;;;12.80;85.80;;;;;;4895309;29;20215;-75
2023/03/02 15:26:59;;;;;;;19.80;14.63;;;12.80;86.60;;;;;;4896205;29;20681;-74
2023/03/02 15:29:25;;;;;;;22.87;15.20;;;12.80;86.10;;;;;;4896443;29;20589;-74
2023/03/02 15:31:50;;;;;;;22.47;15.77;;;12.80;86.50;;;;;;4894895;29;20199;-74
2023/03/02 15:34:16;;;;;;;33.13;17.50;;;12.80;87.10;;;;;;4894357;29;20670;-75
2023/03/02 15:36:42;;;;;;;26.43;16.07;;;12.70;87.00;;;;;;4894481;29;20203;-75
2023/03/02 15:39:12;;;;;;;25.53;18.20;;;12.60;87.40;;;;;;4894931;29;20184;-75
2023/03/02 15:41:37;;;;;;;24.03;18.67;;;12.50;88.70;;;;;;4895933;29;20278;-75
2023/03/02 15:44:03;;;;;;;22.63;19.00;;;12.50;89.50;;;;;;4895806;29;20399;-75
2023/03/02 15:46:29;;;;;;;23.70;19.37;;;12.40;89.30;;;;;;4895655;29;20200;-75
2023/03/02 15:48:54;;;;;;;21.33;18.80;;;12.30;89.30;;;;;;4895818;29;20195;-75
2023/03/02 15:51:20;;;;;;;26.63;20.63;;;12.20;89.70;;;;;;4897231;29;20202;-75
2023/03/02 15:53:47;;;;;;;24.63;20.83;;;12.00;89.80;;;;;;4916155;29;20235;-75
2023/03/02 15:56:15;;;;;;;26.67;21.07;;;12.00;90.20;;;;;;4894752;29;20214;-75
2023/03/02 15:58:46;;;;;;;23.97;21.37;;;12.10;90.60;;;;;;4895767;29;20235;-75
2023/03/02 16:01:14;;;;;;;30.87;22.43;;;12.10;90.50;;;;;;4895866;29;20183;-75
2023/03/02 16:03:41;;;;;;;26.83;23.93;;;12.10;90.60;;;;;;4894371;29;20711;-75
2023/03/02 16:06:07;;;;;;;26.13;23.33;;;12.10;90.90;;;;;;4894070;29;20204;-75
2023/03/02 16:08:34;;;;;;;24.77;22.07;;;12.00;91.00;;;;;;4895686;29;20187;-75
2023/03/02 16:11:03;;;;;;;33.47;25.47;;;12.00;90.90;;;;;;4895598;29;20191;-75
2023/03/02 16:13:29;;;;;;;30.53;24.23;;;11.90;90.80;;;;;;4895682;29;20188;-75
2023/03/02 16:15:55;;;;;;;28.97;23.80;;;11.80;91.40;;;;;;4918853;23;20662;-72
2023/03/02 16:18:21;;;;;;;26.90;21.83;;;11.70;91.40;;;;;;4933522;29;20190;-72
2023/03/02 16:20:47;;;;;;;25.07;21.27;;;11.70;92.00;;;;;;4933992;29;20592;-73
2023/03/02 16:23:14;;;;;;;24.17;19.20;;;11.90;91.80;;;;;;4933305;29;20261;-73
2023/03/02 16:25:43;;;;;;;24.57;20.57;;;12.10;92.00;;;;;;4932074;29;20194;-73
2023/03/02 16:28:13;;;;;;;26.97;21.07;;;12.20;91.20;;;;;;4913324;29;20211;-74
2023/03/02 16:30:40;;;;;;;27.50;21.30;;;12.20;91.00;;;;;;4914239;29;20184;-73
2023/03/02 16:33:09;;;;;;;30.87;21.73;;;12.30;90.80;;;;;;4916731;29;20230;-75
2023/03/02 16:35:36;;;;;;;30.40;21.37;;;12.10;91.00;;;;;;4917261;29;20191;-73
2023/03/02 16:38:02;;;;;;;28.40;21.00;;;11.90;91.10;;;;;;4918566;29;20199;-74
2023/03/02 16:40:28;;;;;;;24.40;19.50;;;11.90;91.60;;;;;;4919798;29;20187;-74